KAXS/AXS METAR and TAF weather

Enter ICAO airport designator
Station Type Date Time Source
KAXS METAR 2022/12/05 13:55 UTC NOAA

KAXS 051355Z AUTO 19005KT 10SM CLR 12/07 A2979 RMK AO2 T01180068


Station Type Date Time Source
KAXS Decoded METAR 2022/12/05 13:55 UTC NOAA

Altus, Altus/Quartz Mountain Regional Airport, OK, United States (KAXS) 34-41-55N 099-20-17W
Dec 05, 2022 - 08:55 AM EST / 2022.12.05 1355 UTC
Wind: from the S (190 degrees) at 6 MPH (5 KT):0
Visibility: 10 mile(s):0
Sky conditions: clear
Temperature: 53.2 F (11.8 C)
Dew Point: 44.2 F (6.8 C)
Relative Humidity: 71%
Pressure (altimeter): 29.79 in. Hg (1008 hPa)
ob: KAXS 051355Z AUTO 19005KT 10SM CLR 12/07 A2979 RMK AO2 T01180068
cycle: 14

Station Type Date Time Source
KAXS TAF UTC NOAA

Error!

Example: see airport list